createdAt,value
2019-01-19T00:03:39.317Z,43.83
2019-01-19T00:08:52.785Z,61.77
2019-01-19T00:14:27.511Z,49.00
2019-01-19T00:20:01.829Z,27.83
2019-01-19T00:25:24.454Z,23.70
2019-01-19T00:31:03.870Z,24.70
2019-01-19T00:36:59.988Z,25.23
2019-01-19T00:42:43.982Z,18.13
2019-01-19T00:48:23.369Z,16.20
2019-01-19T00:53:38.418Z,16.17
2019-01-19T00:58:51.236Z,18.37
2019-01-19T01:04:41.263Z,22.90
2019-01-19T01:10:08.471Z,25.60
2019-01-19T01:15:39.612Z,21.77
2019-01-19T01:21:34.245Z,20.95
2019-01-19T01:27:15.041Z,24.97
2019-01-19T01:32:59.897Z,21.50
2019-01-19T01:38:32.271Z,19.60
2019-01-19T01:44:31.947Z,25.00
2019-01-19T01:49:46.767Z,21.60
2019-01-19T01:55:15.361Z,20.73
2019-01-19T02:00:55.647Z,20.33
2019-01-19T02:06:23.473Z,21.17
2019-01-19T02:12:09.589Z,22.07
2019-01-19T02:18:05.149Z,21.37
2019-01-19T02:23:48.361Z,26.27
2019-01-19T02:29:36.707Z,31.27
2019-01-19T02:35:25.612Z,20.17
2019-01-19T02:40:50.194Z,20.27
2019-01-19T02:46:23.064Z,25.43
2019-01-19T02:52:17.130Z,21.00
2019-01-19T02:58:06.604Z,23.50
2019-01-19T03:03:44.160Z,21.87
2019-01-19T03:09:18.295Z,21.07
2019-01-19T03:15:15.714Z,18.87
2019-01-19T03:20:58.518Z,26.03
2019-01-19T03:26:19.149Z,25.03
2019-01-19T03:32:02.596Z,27.20
2019-01-19T03:37:50.800Z,22.43
2019-01-19T03:43:31.735Z,22.62
2019-01-19T03:49:05.717Z,22.93
2019-01-19T03:54:50.900Z,21.23
2019-01-19T04:00:33.837Z,20.83
2019-01-19T04:06:00.643Z,22.45
2019-01-19T04:11:32.941Z,21.93
2019-01-19T04:17:02.793Z,22.47
2019-01-19T04:22:56.379Z,22.17
2019-01-19T04:28:05.183Z,19.67
2019-01-19T04:33:11.902Z,21.53
2019-01-19T04:38:18.843Z,22.17
2019-01-19T04:43:23.501Z,21.00
2019-01-19T04:48:30.871Z,21.27
2019-01-19T04:53:35.830Z,21.73
2019-01-19T04:58:40.747Z,30.13
2019-01-19T05:03:45.192Z,31.00
2019-01-19T05:08:49.880Z,29.03
2019-01-19T05:13:59.350Z,21.93
2019-01-19T05:19:04.681Z,21.73
2019-01-19T05:24:09.987Z,24.27
2019-01-19T05:29:18.671Z,28.35
2019-01-19T05:34:23.823Z,25.43
2019-01-19T05:39:28.560Z,23.90
2019-01-19T05:44:33.058Z,22.57
2019-01-19T05:49:38.467Z,25.73
2019-01-19T05:54:44.864Z,20.27
2019-01-19T05:59:50.527Z,25.47
2019-01-19T06:04:57.855Z,20.70
2019-01-19T06:10:02.593Z,22.53
2019-01-19T06:15:08.964Z,23.47
2019-01-19T06:20:15.689Z,22.13
2019-01-19T06:25:20.920Z,27.97
2019-01-19T06:30:28.937Z,29.30
2019-01-19T06:35:33.455Z,26.67
2019-01-19T06:40:38.487Z,23.77
2019-01-19T06:45:43.477Z,24.83
2019-01-19T06:50:47.953Z,30.52
2019-01-19T06:55:52.311Z,26.57
2019-01-19T07:00:56.667Z,27.13
2019-01-19T07:06:01.701Z,28.53
2019-01-19T07:11:06.283Z,28.27
2019-01-19T07:16:10.988Z,28.40
2019-01-19T07:21:15.781Z,26.27
2019-01-19T07:26:20.769Z,26.70
2019-01-19T07:31:28.156Z,23.05
2019-01-19T07:36:33.779Z,33.23
2019-01-19T07:41:38.595Z,30.70
2019-01-19T07:46:45.632Z,31.80
2019-01-19T07:51:52.678Z,30.57
2019-01-19T07:56:57.061Z,35.43
2019-01-19T08:02:02.573Z,25.60
2019-01-19T08:07:07.315Z,28.50
2019-01-19T08:12:12.851Z,29.10
2019-01-19T08:17:17.597Z,31.53
2019-01-19T08:22:23.264Z,27.83
2019-01-19T08:27:36.513Z,32.37
2019-01-19T08:32:42.354Z,29.50
2019-01-19T08:37:47.715Z,31.17
2019-01-19T08:43:06.079Z,29.67
2019-01-19T08:48:11.566Z,29.53
2019-01-19T08:53:16.853Z,27.20
2019-01-19T08:58:24.294Z,26.40
2019-01-19T09:03:30.380Z,26.20
2019-01-19T09:08:35.521Z,32.43
2019-01-19T09:13:46.662Z,29.57
2019-01-19T09:18:55.083Z,25.43
2019-01-19T09:24:04.391Z,19.20
2019-01-19T09:29:09.861Z,28.20
2019-01-19T09:34:14.256Z,29.33
2019-01-19T09:39:19.699Z,28.80
2019-01-19T09:44:26.607Z,26.40
2019-01-19T09:49:32.482Z,23.13
2019-01-19T09:54:44.840Z,26.53
2019-01-19T09:59:49.255Z,31.90
2019-01-19T10:04:54.417Z,47.43
2019-01-19T10:10:01.209Z,37.23
2019-01-19T10:15:09.972Z,16.00
2019-01-19T10:20:19.714Z,25.90
2019-01-19T10:25:24.471Z,23.32
2019-01-19T10:30:29.012Z,22.57
2019-01-19T10:35:34.568Z,22.87
2019-01-19T10:40:39.953Z,18.80
2019-01-19T10:45:45.879Z,25.23
2019-01-19T10:50:50.328Z,39.90
2019-01-19T10:55:56.219Z,30.72
2019-01-19T11:01:02.168Z,21.07
2019-01-19T11:06:07.448Z,22.60
2019-01-19T11:11:12.646Z,25.20
2019-01-19T11:16:18.326Z,19.97
2019-01-19T11:21:25.384Z,27.17
2019-01-19T11:26:30.229Z,23.50
2019-01-19T11:31:35.205Z,16.20
2019-01-19T11:36:41.901Z,16.23
2019-01-19T11:41:54.661Z,19.13
2019-01-19T11:46:59.417Z,21.80
2019-01-19T11:52:08.567Z,20.53
2019-01-19T11:57:13.644Z,17.87
2019-01-19T12:02:21.437Z,19.73
2019-01-19T12:07:26.472Z,17.90
2019-01-19T12:12:31.629Z,18.13
2019-01-19T12:17:36.611Z,17.13
2019-01-19T12:22:43.690Z,16.53
2019-01-19T12:27:49.176Z,13.70
2019-01-19T12:32:54.686Z,14.30
2019-01-19T12:37:59.630Z,12.67
2019-01-19T12:43:15.516Z,12.93
2019-01-19T12:48:20.288Z,14.13
2019-01-19T12:53:26.357Z,14.50
2019-01-19T12:58:31.254Z,19.27
2019-01-19T13:03:36.739Z,14.17
2019-01-19T13:08:41.486Z,15.60
2019-01-19T13:13:48.753Z,15.43
2019-01-19T13:19:18.572Z,15.93
2019-01-19T13:24:52.048Z,14.47
2019-01-19T13:30:38.287Z,19.77
2019-01-19T13:36:29.396Z,14.73
2019-01-19T13:42:12.650Z,19.15
2019-01-19T13:47:52.305Z,18.27
2019-01-19T13:53:38.064Z,20.20
2019-01-19T13:58:54.582Z,18.73
2019-01-19T14:04:45.370Z,16.67
2019-01-19T14:10:48.499Z,16.47
2019-01-19T14:16:25.074Z,17.67
2019-01-19T14:22:26.358Z,21.93
2019-01-19T14:27:56.779Z,18.48
2019-01-19T14:33:24.179Z,17.00
2019-01-19T14:39:18.496Z,17.00
2019-01-19T14:45:00.575Z,20.07
2019-01-19T14:50:42.632Z,18.93
2019-01-19T14:56:47.088Z,24.20
2019-01-19T15:02:37.563Z,24.53
2019-01-19T15:08:11.959Z,23.43
2019-01-19T15:13:34.916Z,23.87
2019-01-19T15:19:09.045Z,25.90
2019-01-19T15:24:45.576Z,31.47
2019-01-19T15:30:42.805Z,28.20
2019-01-19T15:36:15.967Z,29.57
2019-01-19T15:41:58.135Z,36.53
2019-01-19T15:47:35.331Z,65.33
2019-01-19T15:53:20.306Z,63.68
2019-01-19T15:59:12.299Z,61.07
2019-01-19T16:04:58.395Z,63.67
2019-01-19T16:10:46.617Z,37.33
2019-01-19T16:16:40.115Z,34.23
2019-01-19T16:22:41.960Z,57.37
2019-01-19T16:28:23.219Z,47.20
2019-01-19T16:34:18.848Z,38.10
2019-01-19T16:39:57.896Z,41.67
2019-01-19T16:45:41.660Z,30.77
2019-01-19T16:58:13.343Z,31.05
2019-01-19T17:03:50.742Z,41.43
2019-01-19T17:09:25.255Z,55.30
2019-01-19T17:15:21.090Z,48.23
2019-01-19T17:21:23.156Z,40.58
2019-01-19T17:27:09.061Z,33.70
2019-01-19T17:32:39.883Z,24.47
2019-01-19T17:38:00.974Z,27.47
2019-01-19T17:43:34.201Z,27.10
2019-01-19T17:48:57.800Z,25.73
2019-01-19T17:54:40.461Z,28.10
2019-01-19T18:00:21.460Z,31.13
2019-01-19T18:05:47.507Z,24.93
2019-01-19T18:11:21.830Z,28.10
2019-01-19T18:17:00.819Z,24.18
2019-01-19T18:22:36.599Z,30.17
2019-01-19T18:27:55.400Z,30.33
2019-01-19T18:33:26.585Z,28.27
2019-01-19T18:39:18.205Z,30.87
2019-01-19T18:44:52.532Z,32.80
2019-01-19T18:50:19.133Z,29.73
2019-01-19T18:56:02.585Z,25.00
2019-01-19T19:01:35.489Z,24.97
2019-01-19T19:07:20.246Z,29.92
2019-01-19T19:12:55.822Z,26.50
2019-01-19T19:18:39.427Z,30.17
2019-01-19T19:24:37.348Z,23.17
2019-01-19T19:30:11.517Z,28.40
2019-01-19T19:35:54.374Z,29.93
2019-01-19T19:41:32.594Z,28.67
2019-01-19T19:47:16.790Z,34.43
2019-01-19T19:52:27.917Z,34.17
2019-01-19T19:57:32.182Z,31.80
2019-01-19T20:02:36.812Z,30.43
2019-01-19T20:07:43.556Z,33.67
2019-01-19T20:12:48.997Z,34.37
2019-01-19T20:17:54.890Z,34.33
2019-01-19T20:23:07.470Z,32.73
2019-01-19T20:28:13.982Z,41.13
2019-01-19T20:33:18.556Z,33.23
2019-01-19T20:38:24.071Z,33.23
2019-01-19T20:43:29.877Z,32.97
2019-01-19T20:48:35.260Z,32.35
2019-01-19T20:53:40.069Z,33.63
2019-01-19T20:58:45.483Z,42.23
2019-01-19T21:03:50.612Z,35.83
2019-01-19T21:08:55.956Z,37.37
2019-01-19T21:14:00.882Z,39.70
2019-01-19T21:19:05.759Z,42.33
2019-01-19T21:24:10.968Z,42.77
2019-01-19T21:29:15.938Z,38.93
2019-01-19T21:34:21.367Z,43.43
2019-01-19T21:39:26.182Z,38.23
2019-01-19T21:44:31.111Z,57.23
2019-01-19T21:49:39.827Z,51.93
2019-01-19T21:54:44.967Z,40.75
2019-01-19T21:59:49.761Z,36.33
2019-01-19T22:04:54.699Z,39.23
2019-01-19T22:10:00.622Z,42.23
2019-01-19T22:15:10.981Z,44.67
2019-01-19T22:20:17.752Z,42.63
2019-01-19T22:25:23.305Z,38.00
2019-01-19T22:30:28.795Z,34.57
2019-01-19T22:35:34.060Z,32.60
2019-01-19T22:40:39.312Z,37.75
2019-01-19T22:45:44.595Z,33.83
2019-01-19T22:50:49.738Z,34.03
2019-01-19T22:55:55.481Z,33.67
2019-01-19T23:01:39.317Z,33.77
2019-01-19T23:06:44.956Z,35.25
2019-01-19T23:11:50.387Z,42.20
2019-01-19T23:16:55.358Z,42.33
2019-01-19T23:22:01.388Z,37.28
2019-01-19T23:27:07.200Z,38.30
2019-01-19T23:32:11.971Z,34.20
2019-01-19T23:37:17.664Z,38.27
2019-01-19T23:42:22.103Z,37.33
2019-01-19T23:47:27.525Z,33.37
2019-01-19T23:52:35.230Z,37.63
2019-01-19T23:57:40.301Z,37.07
